Airfield :
LOGIN :

Register | Disclaimer

   EN    FR    IT 

 










Legend :    VFR   Marginal VFR   IFR   Intensive IFR   Very Intensive IFR
Visi :
Ceiling :
>= 8 km
>= 3000ft
5 to 8 km
1000 to 3000 ft
1500m to 5 km
500 to 1000 ft
800 to 1500m
200 to 500 ft
< 800m
< 200 ft
Symbols :   Thunderstorms  Fog  Heavy snow  Heavy precipitations  Wind > 20 kt
SIGMETs :     Misc.  Thunderstorms  Icing  Turbulence  Mountain Waves  Volcanic Ashes







- Airport Elevation : 856 ft
- IATA code : VGO


LEVX - Vigo Peinador

CURRENT METAR :
  • 231740Z 24009KT 210V270 7000 -RA BKN014 BKN027 15/15 Q1014 TEMPO 0800 BCFG BKN005

EXPIRED METARs :
  • 231730Z 22013KT 4000 RA SCT005 BKN019 BKN027 15/15 Q1014 TEMPO 0800 BCFG BKN005
  • 231719Z 22012KT 190V250 3000 RA FEW002 SCT014 BKN021 15/15 Q1014 TEMPO 0800 BCFG BKN005
  • 231700Z 19004KT 150V220 0800 R19/1900N R01/0450N -RA BCFG BKN001 SCT009 BKN015 15/15 Q1013 TEMPO 0300 FG
  • 231630Z 20005KT 140V240 0800 R19/1600D R01/0375D RA BCFG VV001 15/15 Q1013 TEMPO 0300 FG
  • 231621Z 20007KT 170V240 0800 R19/1900D R01/0500N RA BCFG VV001 15/15 Q1013 TEMPO 0300 FG
  • 231610Z 20008KT 160V230 2500 0600SE R19/P2000N R01/0700D -DZ BCFG BKN002 BKN010 15/15 Q1013 TEMPO 0800 BCFG
  • 231600Z 21010KT 3000 -DZ BR BKN003 BKN010 15/15 Q1013 NOSIG
  • 231545Z 19010KT 150V220 3000 -DZ BR BKN003 BKN010 15/15 Q1013 TEMPO BKN003
  • 231530Z 19011KT 140V220 3000 BR SCT003 BKN005 BKN010 15/15 Q1013 TEMPO BKN003
  • 231500Z 19011KT 150V230 4500 BR SCT007 BKN010 BKN014 16/15 Q1013 TEMPO 2500 -RA BR

TAF TAF LEVX
Valid from the 23 at 18:00 until the 24 at 18:00 UTC


231700Z 2318/2418 19009KT 6000 SCT010 BKN016 TX16/2414Z TN12/2407Z
TEMPO 2318/2418 3000 RADZ BKN005 BKN010
TEMPO 2318/2410 0800 BCFG BKN002
PROB40
TEMPO 2318/2408 0350 FG VV001
No reported NOTAMs for that airfield.



MET'MAP, your aeronautical weather chart ! - Copyright ORBIFLY December 2007 - Disclaimer

ORBIFLY MET'MAP TEAM :

Programming & Development : Alexandra Zaïnal
Concept & Development : Baudouin d'Aumeries
Co-Development & Prog : Marc-Olivier Méhu
Technical & hardware support : Manuel Goepfert

Contact : metmap@orbifly.com




SOURCES & CREDITS :

   NOAA